Time;durP1;ratioP1;P1;durP2;ratioP2;P2;SDS_P1;SDS_P2;PMS_P1;PMS_P2;Temp;Humidity;BMP_temperature;BMP_pressure;BME280_temperature;BME280_humidity;BME280_pressure;Samples;Min_cycle;Max_cycle;Signal;HPM_P1;HPM_P2
2021/10/02 00:31:22;;;;;;;69.65;45.78;;;;;;;3.75;87.80;102070.30;1738370;81;21594;-68
2021/10/02 00:36:23;;;;;;;69.10;44.90;;;;;;;3.66;87.94;102066.09;1701064;82;21045;-68
2021/10/02 00:41:55;;;;;;;66.92;42.85;;;;;;;3.66;88.03;102061.63;1735321;81;21077;-68
2021/10/02 00:46:49;;;;;;;65.52;43.02;;;;;;;3.68;88.04;102059.61;1736766;82;21537;-69
2021/10/02 00:49:15;;;;;;;62.65;40.85;;;;;;;3.68;88.02;102056.16;1711657;82;21073;-68
2021/10/02 00:51:43;;;;;;;62.00;41.15;;;;;;;3.67;88.01;102051.88;1728709;81;21048;-68
2021/10/02 00:54:10;;;;;;;63.08;41.13;;;;;;;3.68;88.00;102055.65;1751748;80;21085;-68
2021/10/02 00:56:37;;;;;;;63.78;41.65;;;;;;;3.66;88.01;102048.91;1728818;81;21099;-69
2021/10/02 00:59:04;;;;;;;59.88;40.43;;;;;;;3.65;87.99;102045.45;1727933;81;21526;-68
2021/10/02 01:01:51;;;;;;;66.33;45.83;;;;;;;3.66;87.96;102052.88;1723223;81;21121;-68
2021/10/02 01:04:41;;;;;;;69.12;44.90;;;;;;;3.66;87.98;102051.56;1726223;81;21054;-69
2021/10/02 01:07:32;;;;;;;74.03;45.73;;;;;;;3.65;88.11;102052.53;1719051;81;20972;-68
2021/10/02 01:10:21;;;;;;;59.75;39.90;;;;;;;3.69;88.28;102049.89;1731765;81;21585;-68
2021/10/02 01:13:49;;;;;;;63.52;41.50;;;;;;;3.71;88.45;102051.84;1733983;81;21078;-67
2021/10/02 01:16:33;;;;;;;58.02;39.00;;;;;;;3.72;88.48;102053.51;1736065;81;20982;-67
2021/10/02 01:19:19;;;;;;;58.38;39.60;;;;;;;3.71;88.48;102055.30;1725709;82;20987;-69
2021/10/02 01:22:09;;;;;;;61.28;39.67;;;;;;;3.70;88.40;102052.84;1733172;81;21010;-67
2021/10/02 01:25:22;;;;;;;59.35;39.67;;;;;;;3.67;88.32;102055.33;1721222;81;21297;-68
2021/10/02 01:28:00;;;;;;;62.05;42.30;;;;;;;3.64;88.28;102058.32;1728840;81;21191;-68
2021/10/02 01:33:22;;;;;;;62.73;42.00;;;;;;;3.65;88.58;102064.42;1732371;81;20973;-69
2021/10/02 01:35:49;;;;;;;58.42;40.30;;;;;;;3.67;88.75;102059.80;1731489;81;21055;-68
2021/10/02 01:52:49;;;;;;;57.88;37.80;;;;;;;3.56;88.63;102041.21;1730251;81;21652;-68
2021/10/02 01:55:16;;;;;;;57.10;39.07;;;;;;;3.46;88.59;102037.47;1582962;84;9999683;-68
2021/10/02 01:58:06;;;;;;;57.70;38.67;;;;;;;3.46;88.59;102037.47;1726780;83;20952;-68
2021/10/02 02:00:32;;;;;;;54.03;36.23;;;;;;;3.46;88.65;102040.61;1691471;83;21062;-67
2021/10/02 02:03:02;;;;;;;53.70;36.48;;;;;;;3.41;88.62;102049.03;1672994;84;21053;-68
2021/10/02 02:05:29;;;;;;;55.75;39.13;;;;;;;3.38;88.61;102047.23;1732500;83;21361;-67
2021/10/02 02:08:04;;;;;;;62.62;41.13;;;;;;;3.35;88.58;102047.08;1713768;82;20995;-67
2021/10/02 02:10:31;;;;;;;55.10;36.85;;;;;;;3.35;88.61;102044.44;1699937;83;21047;-67
2021/10/02 02:12:59;;;;;;;57.45;38.70;;;;;;;3.37;88.61;102045.60;1733187;83;20986;-67
2021/10/02 02:15:28;;;;;;;58.17;38.35;;;;;;;3.37;88.58;102045.60;1701633;83;20996;-68
2021/10/02 02:18:03;;;;;;;47.67;33.58;;;;;;;3.38;88.58;102042.77;1731712;81;21090;-68
2021/10/02 02:20:57;;;;;;;48.20;33.67;;;;;;;3.37;88.55;102044.28;1697543;83;21095;-68
2021/10/02 02:23:25;;;;;;;47.88;32.58;;;;;;;3.33;88.50;102042.48;1708760;82;21083;-68
2021/10/02 02:25:59;;;;;;;53.17;35.83;;;;;;;3.27;88.46;102046.63;1705850;82;21069;-67
2021/10/02 02:28:25;;;;;;;50.88;35.68;;;;;;;3.24;88.46;102047.47;1707219;82;21120;-68
2021/10/02 02:30:52;;;;;;;53.38;37.30;;;;;;;3.24;88.57;102053.57;1678031;83;21104;-68
2021/10/02 02:33:19;;;;;;;48.92;35.05;;;;;;;3.26;88.69;102055.55;1671525;83;21478;-68
2021/10/02 02:35:47;;;;;;;51.05;34.88;;;;;;;3.28;88.73;102058.83;1674147;83;21023;-67
2021/10/02 02:38:14;;;;;;;50.98;34.18;;;;;;;3.27;88.72;102055.87;1680180;84;21054;-67
2021/10/02 02:40:42;;;;;;;51.58;34.48;;;;;;;3.26;88.69;102052.09;1679923;84;21031;-68
2021/10/02 02:43:10;;;;;;;53.95;35.75;;;;;;;3.24;88.68;102056.71;1730944;81;21154;-68
2021/10/02 02:45:38;;;;;;;47.98;33.10;;;;;;;3.23;88.72;102051.94;1699284;83;21114;-68
2021/10/02 02:48:15;;;;;;;52.60;36.90;;;;;;;3.23;88.73;102060.36;1703149;83;21492;-68
2021/10/02 02:51:05;;;;;;;60.35;37.85;;;;;;;3.21;88.81;102051.77;1697793;83;21028;-67
2021/10/02 02:53:52;;;;;;;53.05;36.28;;;;;;;3.22;88.91;102047.63;1709956;83;21013;-68
2021/10/02 02:56:24;;;;;;;54.15;37.00;;;;;;;3.25;89.05;102045.14;1728732;81;21170;-69
2021/10/02 02:58:54;;;;;;;59.30;39.65;;;;;;;3.28;89.17;102042.16;1662525;85;21071;-68
2021/10/02 03:01:21;;;;;;;53.48;37.78;;;;;;;3.28;89.19;102043.48;1738826;81;20974;-68
2021/10/02 03:03:50;;;;;;;63.40;42.13;;;;;;;3.27;89.22;102036.56;1736394;82;20979;-69
2021/10/02 03:06:18;;;;;;;60.52;40.60;;;;;;;3.27;89.32;102037.89;1741313;81;20999;-68
2021/10/02 03:08:51;;;;;;;58.13;39.65;;;;;;;3.28;89.38;102032.92;1695167;83;21539;-69
2021/10/02 03:11:21;;;;;;;61.00;41.40;;;;;;;3.31;89.41;102031.77;1709914;82;21168;-69
2021/10/02 03:13:51;;;;;;;58.73;39.67;;;;;;;3.31;89.44;102036.55;1709486;82;20998;-68
2021/10/02 03:16:19;;;;;;;58.80;39.15;;;;;;;3.34;89.48;102031.42;1710110;82;21105;-68
2021/10/02 03:18:52;;;;;;;61.15;41.33;;;;;;;3.32;89.48;102033.40;1708289;82;20947;-69
2021/10/02 03:21:20;;;;;;;57.38;39.58;;;;;;;3.31;89.55;102029.94;1684023;83;20967;-68
2021/10/02 03:23:49;;;;;;;58.87;38.88;;;;;;;3.28;89.60;102025.81;1706472;82;21069;-68
2021/10/02 03:26:17;;;;;;;63.70;40.60;;;;;;;3.25;89.56;102020.88;1679923;84;21022;-68
2021/10/02 03:28:47;;;;;;;54.67;38.13;;;;;;;3.23;89.54;102020.25;1679130;83;21102;-68
2021/10/02 03:31:14;;;;;;;55.08;37.38;;;;;;;3.19;89.52;102020.27;1674909;84;21683;-69
2021/10/02 03:33:41;;;;;;;58.02;38.58;;;;;;;3.12;89.50;102018.47;1712953;82;21643;-68
2021/10/02 03:36:08;;;;;;;56.58;38.95;;;;;;;3.07;89.57;102026.10;1653639;85;21105;-68
2021/10/02 03:38:37;;;;;;;57.73;38.48;;;;;;;3.01;89.59;102025.77;1679787;83;21054;-68
2021/10/02 03:41:04;;;;;;;52.75;35.63;;;;;;;2.99;89.62;102024.30;1738031;81;21065;-69
2021/10/02 03:43:33;;;;;;;51.18;34.27;;;;;;;2.99;89.63;102029.07;1735239;81;21049;-68
2021/10/02 03:46:00;;;;;;;47.88;33.90;;;;;;;2.97;89.61;102021.84;1738594;81;21508;-68
2021/10/02 03:48:27;;;;;;;48.28;32.15;;;;;;;2.96;89.55;102022.84;1737906;81;21103;-69
2021/10/02 03:50:54;;;;;;;41.95;30.55;;;;;;;2.96;89.43;102027.27;1707693;82;21490;-68
2021/10/02 03:53:21;;;;;;;41.05;30.55;;;;;;;2.94;89.33;102026.64;1708659;82;21350;-69
2021/10/02 03:55:48;;;;;;;45.52;30.77;;;;;;;2.90;89.25;102024.84;1709179;82;21053;-69
2021/10/02 03:58:15;;;;;;;43.35;29.75;;;;;;;2.88;89.14;102022.03;1710267;84;21078;-68
2021/10/02 04:00:43;;;;;;;45.17;30.97;;;;;;;2.82;89.05;102024.34;1709720;82;21066;-68
2021/10/02 04:03:10;;;;;;;45.17;31.15;;;;;;;2.81;89.06;102027.17;1708971;82;21054;-69
2021/10/02 04:05:38;;;;;;;40.65;30.88;;;;;;;2.82;89.13;102026.16;1710227;82;21306;-68
2021/10/02 04:08:05;;;;;;;40.25;29.85;;;;;;;2.85;89.22;102020.55;1709498;84;21137;-69
2021/10/02 04:10:32;;;;;;;40.45;29.70;;;;;;;2.88;89.26;102028.13;1682075;84;21713;-68
2021/10/02 04:13:00;;;;;;;44.10;30.65;;;;;;;2.90;89.24;102020.88;1678688;83;21103;-68
2021/10/02 04:15:27;;;;;;;39.92;29.85;;;;;;;2.93;89.21;102014.41;1720697;82;21064;-69
2021/10/02 04:17:54;;;;;;;44.38;31.12;;;;;;;2.93;89.14;102024.50;1739295;81;21013;-69
2021/10/02 04:20:22;;;;;;;43.63;30.62;;;;;;;2.93;89.08;102021.86;1739232;81;21053;-68
2021/10/02 04:22:50;;;;;;;39.95;28.92;;;;;;;2.92;89.10;102020.70;1678766;83;21447;-68
2021/10/02 04:25:18;;;;;;;38.70;29.52;;;;;;;2.94;89.13;102019.53;1729472;81;20978;-68
2021/10/02 04:27:45;;;;;;;38.30;28.25;;;;;;;2.96;89.21;102024.16;1698577;83;21110;-68
2021/10/02 04:30:11;;;;;;;38.30;28.35;;;;;;;3.00;89.29;102021.50;1729930;81;21026;-68
2021/10/02 04:32:38;;;;;;;37.17;27.00;;;;;;;3.07;89.35;102020.32;1698957;83;20969;-68
2021/10/02 04:35:06;;;;;;;36.93;27.27;;;;;;;3.13;89.41;102017.50;1681922;85;21512;-68
2021/10/02 04:37:33;;;;;;;36.50;26.73;;;;;;;3.19;89.39;102014.99;1679951;83;21574;-68
2021/10/02 04:40:00;;;;;;;36.73;26.35;;;;;;;3.25;89.42;102018.74;1713849;82;21034;-68
2021/10/02 04:42:27;;;;;;;34.55;25.37;;;;;;;3.30;89.45;102017.73;1737679;81;21073;-68
2021/10/02 04:44:53;;;;;;;36.13;25.75;;;;;;;3.36;89.49;102018.38;1735738;81;21066;-68
2021/10/02 04:47:20;;;;;;;36.93;26.80;;;;;;;3.42;89.53;102014.20;1738720;81;21804;-68
2021/10/02 04:49:50;;;;;;;35.70;25.57;;;;;;;3.50;89.60;102012.84;1738726;81;20993;-68
2021/10/02 04:52:24;;;;;;;32.78;24.65;;;;;;;3.59;89.65;102012.30;1740402;81;20994;-68
2021/10/02 04:55:06;;;;;;;30.12;23.42;;;;;;;3.69;89.74;102020.83;1733851;81;21158;-68
2021/10/02 04:57:34;;;;;;;31.82;25.00;;;;;;;3.78;89.76;102025.03;1704359;82;21070;-68
2021/10/02 05:00:04;;;;;;;32.50;25.57;;;;;;;3.88;89.77;102022.16;1713620;82;21199;-68
2021/10/02 05:02:31;;;;;;;32.83;24.60;;;;;;;3.98;89.81;102019.63;1724579;82;21041;-68
2021/10/02 05:04:58;;;;;;;33.95;24.72;;;;;;;4.10;89.78;102016.55;1708737;82;21595;-68
2021/10/02 05:07:27;;;;;;;32.55;24.10;;;;;;;4.19;89.79;102020.27;1708807;82;21086;-68
2021/10/02 05:09:53;;;;;;;31.30;23.52;;;;;;;4.32;89.78;102020.16;1709700;82;21078;-68
2021/10/02 05:12:22;;;;;;;33.75;24.50;;;;;;;4.42;89.77;102021.55;1707549;82;21062;-68
2021/10/02 05:14:50;;;;;;;31.55;23.85;;;;;;;4.55;89.75;102022.75;1706717;82;21731;-68
2021/10/02 05:17:17;;;;;;;29.45;23.83;;;;;;;4.67;89.74;102023.92;1709229;82;21601;-68
2021/10/02 05:19:46;;;;;;;29.60;22.58;;;;;;;4.78;89.69;102024.81;1734553;81;21028;-68
2021/10/02 05:22:13;;;;;;;29.52;22.98;;;;;;;4.90;89.65;102031.31;1733009;81;21077;-68
2021/10/02 05:24:40;;;;;;;30.35;22.82;;;;;;;5.02;89.60;102026.86;1696754;83;21153;-68
2021/10/02 05:27:08;;;;;;;30.45;23.32;;;;;;;5.10;89.51;102028.07;1707014;82;21046;-68
2021/10/02 05:29:37;;;;;;;29.92;23.02;;;;;;;5.19;89.50;102033.59;1703013;83;21541;-68
2021/10/02 05:32:05;;;;;;;29.85;22.50;;;;;;;5.28;89.44;102027.19;1706655;82;21045;-69
2021/10/02 05:34:31;;;;;;;29.07;22.17;;;;;;;5.38;89.37;102030.88;1710542;82;21201;-68
2021/10/02 05:36:58;;;;;;;28.70;21.82;;;;;;;5.50;89.29;102033.87;1735642;81;21139;-67
2021/10/02 05:39:25;;;;;;;29.45;22.32;;;;;;;5.62;89.17;102035.00;1735535;82;21050;-69
2021/10/02 05:41:52;;;;;;;27.87;21.93;;;;;;;5.71;89.00;102031.23;1734996;81;21109;-68
2021/10/02 05:44:18;;;;;;;25.32;19.90;;;;;;;5.83;88.84;102039.02;1734059;81;21750;-69
2021/10/02 05:46:45;;;;;;;26.12;19.65;;;;;;;5.96;88.62;102038.86;1693199;83;21090;-69
2021/10/02 05:49:12;;;;;;;28.55;21.87;;;;;;;6.05;88.33;102031.89;1728746;81;21202;-69
2021/10/02 05:51:38;;;;;;;25.35;20.23;;;;;;;6.17;88.16;102036.70;1696061;83;21051;-69
2021/10/02 05:54:05;;;;;;;26.97;20.77;;;;;;;6.29;87.95;102033.33;1709475;82;21065;-70
2021/10/02 05:56:33;;;;;;;26.60;20.68;;;;;;;6.40;87.78;102033.81;1727485;81;21073;-69
2021/10/02 05:59:00;;;;;;;24.37;18.57;;;;;;;6.52;87.62;102033.61;1673151;83;21707;-70
2021/10/02 06:01:26;;;;;;;24.60;17.60;;;;;;;6.63;87.41;102037.05;1675803;83;21145;-70
2021/10/02 06:03:53;;;;;;;27.00;20.08;;;;;;;6.72;87.24;102032.41;1733000;81;21084;-70
2021/10/02 06:06:19;;;;;;;26.00;20.30;;;;;;;6.77;86.96;102036.09;1734126;81;21033;-70
2021/10/02 06:08:46;;;;;;;22.98;17.37;;;;;;;6.87;86.83;102034.94;1735203;81;21042;-70
2021/10/02 06:11:12;;;;;;;21.45;16.10;;;;;;;6.96;86.60;102037.23;1737501;81;21030;-69
2021/10/02 06:13:39;;;;;;;24.00;18.25;;;;;;;7.08;86.18;102035.37;1726866;81;21065;-68
2021/10/02 06:16:07;;;;;;;21.33;17.82;;;;;;;7.18;85.81;102039.80;1736362;81;21037;-71
2021/10/02 06:18:34;;;;;;;26.97;19.00;;;;;;;7.28;85.51;102038.41;1735381;81;21053;-70
2021/10/02 06:21:02;;;;;;;25.45;19.57;;;;;;;7.42;85.20;102034.47;1730334;81;21145;-69
2021/10/02 06:23:30;;;;;;;25.23;19.23;;;;;;;7.55;84.97;102035.84;1697817;83;21103;-70
2021/10/02 06:25:56;;;;;;;23.83;18.17;;;;;;;7.69;84.75;102034.84;1731224;81;22312;-70
2021/10/02 06:28:23;;;;;;;23.75;18.48;;;;;;;7.85;84.37;102035.49;1698371;83;21087;-69
2021/10/02 06:30:50;;;;;;;23.47;18.67;;;;;;;7.96;83.94;102040.20;1728273;81;21025;-69
2021/10/02 06:33:18;;;;;;;22.80;18.48;;;;;;;8.12;83.76;102041.14;1725309;81;20998;-70
2021/10/02 06:35:45;;;;;;;23.77;19.52;;;;;;;8.26;83.55;102035.82;1659805;84;21079;-70
2021/10/02 06:38:12;;;;;;;24.98;19.25;;;;;;;8.37;83.13;102033.89;1667742;83;21124;-70
2021/10/02 06:40:41;;;;;;;23.90;18.62;;;;;;;8.52;82.76;102033.17;1676610;83;21262;-69
2021/10/02 06:43:07;;;;;;;23.83;17.80;;;;;;;8.65;82.29;102033.17;1734395;81;21131;-70
2021/10/02 06:45:34;;;;;;;19.48;15.35;;;;;;;8.79;81.89;102035.81;1735149;81;21531;-67
2021/10/02 06:48:02;;;;;;;22.42;17.98;;;;;;;8.92;81.36;102034.45;1735952;81;21519;-67
2021/10/02 06:50:29;;;;;;;22.65;16.95;;;;;;;9.05;80.94;102037.55;1698152;83;21446;-68
2021/10/02 06:52:57;;;;;;;24.35;16.82;;;;;;;9.20;80.49;102032.80;1722398;81;20978;-69
2021/10/02 06:55:23;;;;;;;21.70;16.30;;;;;;;9.33;79.87;102031.92;1697706;83;21545;-69
2021/10/02 06:57:50;;;;;;;22.80;16.80;;;;;;;9.43;79.28;102034.95;1727274;81;21136;-71
2021/10/02 07:00:17;;;;;;;23.15;16.45;;;;;;;9.52;78.54;102036.34;1676453;83;21160;-70
2021/10/02 07:02:44;;;;;;;26.80;17.02;;;;;;;9.59;78.16;102038.45;1727510;81;21243;-70
2021/10/02 07:05:14;;;;;;;22.75;17.42;;;;;;;9.71;77.92;102032.45;1675770;83;21122;-68
2021/10/02 07:07:41;;;;;;;25.05;17.37;;;;;;;9.84;77.42;102037.19;1669250;83;21063;-68
2021/10/02 07:10:11;;;;;;;20.45;16.70;;;;;;;9.97;77.17;102033.61;1707940;82;21070;-68
2021/10/02 07:12:39;;;;;;;19.67;15.35;;;;;;;10.14;76.99;102028.55;1737294;81;21508;-69
2021/10/02 07:15:08;;;;;;;24.40;17.23;;;;;;;10.28;76.70;102022.61;1732540;81;21033;-68
2021/10/02 07:17:36;;;;;;;23.13;17.80;;;;;;;10.43;76.58;102024.92;1734880;81;21041;-69
2021/10/02 07:20:06;;;;;;;21.60;17.23;;;;;;;10.60;76.32;102026.01;1735335;81;21755;-68
2021/10/02 07:22:40;;;;;;;23.12;16.62;;;;;;;10.78;75.84;102021.19;1733571;81;21291;-70
2021/10/02 07:25:13;;;;;;;21.62;16.50;;;;;;;10.92;75.17;102019.17;1732887;81;21513;-69
2021/10/02 07:27:40;;;;;;;25.93;16.67;;;;;;;11.06;74.74;102018.52;1694047;83;21117;-68
2021/10/02 07:30:09;;;;;;;23.27;17.20;;;;;;;11.22;74.47;102014.72;1709334;82;21353;-69
2021/10/02 07:32:37;;;;;;;25.33;17.27;;;;;;;11.39;74.30;102014.09;1705773;82;21190;-69
2021/10/02 07:35:04;;;;;;;21.97;18.23;;;;;;;11.58;73.92;102011.66;1733349;81;21188;-69
2021/10/02 07:37:31;;;;;;;22.80;17.57;;;;;;;11.74;73.34;102012.32;1735643;81;21163;-69
2021/10/02 07:40:25;;;;;;;23.33;17.57;;;;;;;11.87;72.65;102010.00;1696115;83;21979;-70
2021/10/02 07:42:55;;;;;;;26.83;18.43;;;;;;;12.01;72.07;102008.45;1724365;81;21926;-69
2021/10/02 07:45:23;;;;;;;27.83;18.57;;;;;;;12.09;71.60;102008.94;1695285;83;21328;-70
2021/10/02 07:47:54;;;;;;;24.40;17.60;;;;;;;12.18;71.16;102008.08;1723829;81;21184;-70
2021/10/02 07:50:22;;;;;;;23.77;17.45;;;;;;;12.30;70.85;102004.05;1694366;83;21306;-70
2021/10/02 07:52:50;;;;;;;23.43;16.50;;;;;;;12.41;69.96;102000.05;1728610;81;21516;-69
2021/10/02 07:55:17;;;;;;;23.83;18.23;;;;;;;12.48;69.57;101996.44;1699095;83;21354;-70
2021/10/02 07:57:45;;;;;;;27.50;18.90;;;;;;;12.57;68.94;101999.02;1728131;81;21150;-70
2021/10/02 08:00:16;;;;;;;27.17;21.20;;;;;;;12.70;68.53;101996.13;1675645;83;21271;-69
2021/10/02 08:02:45;;;;;;;25.45;20.25;;;;;;;12.85;67.95;101996.42;1734143;81;21294;-70
2021/10/02 08:05:11;;;;;;;30.27;20.20;;;;;;;13.04;67.33;101994.93;1734781;81;22156;-68
2021/10/02 08:07:41;;;;;;;26.00;18.13;;;;;;;13.21;66.56;101993.64;1732138;81;22693;-68
2021/10/02 08:10:09;;;;;;;21.97;16.03;;;;;;;13.37;66.01;101988.89;1692613;83;21271;-68
2021/10/02 08:12:36;;;;;;;20.67;15.40;;;;;;;13.51;65.31;101988.05;1725877;81;21404;-69
2021/10/02 08:15:06;;;;;;;20.40;15.30;;;;;;;13.61;64.78;101985.02;1700083;82;21924;-69
2021/10/02 08:17:35;;;;;;;19.30;14.83;;;;;;;13.72;63.83;101983.34;1673519;83;21896;-69
2021/10/02 08:20:08;;;;;;;25.13;17.60;;;;;;;13.83;62.92;101983.78;1674219;83;21414;-68
2021/10/02 08:22:39;;;;;;;23.77;16.65;;;;;;;13.97;62.52;101987.48;1672571;84;27591;-68
2021/10/02 08:25:09;;;;;;;23.43;15.57;;;;;;;14.22;62.29;101985.20;1731021;81;47248;-68
2021/10/02 08:27:37;;;;;;;17.83;12.93;;;;;;;14.22;62.29;101985.20;1733664;81;21576;-70
2021/10/02 08:30:07;;;;;;;19.33;12.33;;;;;;;14.33;60.70;101982.12;1733694;81;21443;-69
2021/10/02 08:32:35;;;;;;;20.63;12.63;;;;;;;14.39;59.88;101987.05;1733388;81;22260;-69
2021/10/02 08:35:04;;;;;;;19.90;13.80;;;;;;;14.48;59.31;101982.34;1695499;83;21612;-70
2021/10/02 08:37:32;;;;;;;20.53;13.27;;;;;;;14.63;59.53;101987.66;1733074;81;23314;-68
2021/10/02 08:40:00;;;;;;;20.53;13.70;;;;;;;14.92;58.10;101981.58;1734909;81;21713;-68
2021/10/02 08:42:27;;;;;;;19.37;13.17;;;;;;;14.92;58.10;101981.58;1733430;81;21795;-68
2021/10/02 08:44:54;;;;;;;17.90;11.30;;;;;;;15.07;58.15;101981.77;1733116;81;21954;-69
2021/10/02 08:47:21;;;;;;;18.53;11.13;;;;;;;15.18;56.86;101978.11;1730530;81;21841;-69
2021/10/02 08:49:49;;;;;;;16.53;10.37;;;;;;;15.27;55.99;101979.83;1734159;81;22347;-69
2021/10/02 08:52:20;;;;;;;17.30;11.00;;;;;;;15.37;55.76;101975.08;1735194;81;21771;-69
2021/10/02 08:54:49;;;;;;;16.45;10.95;;;;;;;15.49;55.70;101975.70;1731560;81;21831;-69
2021/10/02 08:57:22;;;;;;;15.97;9.10;;;;;;;15.60;55.26;101973.41;1734029;81;21100;-68
2021/10/02 08:59:55;;;;;;;16.70;9.37;;;;;;;15.71;54.43;101972.98;1702553;82;21725;-68
2021/10/02 09:02:22;;;;;;;;;;;;;;;15.79;54.06;101967.65;1669480;83;22110;-68
2021/10/02 09:04:51;;;;;;;16.07;9.40;;;;;;;15.84;52.32;101953.69;1727858;81;20183;-68
2021/10/02 09:07:20;;;;;;;16.03;9.60;;;;;;;15.91;52.60;101964.25;1704668;83;21828;-69
2021/10/02 09:09:49;;;;;;;15.10;9.13;;;;;;;16.13;52.77;101964.95;1724376;81;21548;-69
2021/10/02 09:12:22;;;;;;;15.17;9.70;;;;;;;16.13;52.77;101964.95;1693310;83;21118;-68
2021/10/02 09:14:52;;;;;;;12.30;7.77;;;;;;;16.21;52.59;101957.44;1725524;81;21034;-69
2021/10/02 09:17:21;;;;;;;9.67;6.53;;;;;;;16.29;51.91;101950.22;1707340;82;20999;-68
2021/10/02 09:19:47;;;;;;;13.23;7.47;;;;;;;16.32;50.65;101946.47;1702681;82;21151;-71
2021/10/02 09:22:18;;;;;;;11.47;6.73;;;;;;;16.39;50.45;101948.93;1695627;83;21047;-70
2021/10/02 09:24:47;;;;;;;10.60;6.92;;;;;;;16.47;50.21;101945.72;1727307;81;21050;-70
2021/10/02 09:27:21;;;;;;;9.07;5.83;;;;;;;16.54;49.59;101946.83;1693912;83;21023;-70
2021/10/02 09:29:58;;;;;;;11.10;5.90;;;;;;;16.60;48.50;101952.53;1676955;83;21576;-68
2021/10/02 09:32:32;;;;;;;9.10;5.90;;;;;;;16.65;48.28;101946.62;1725265;81;21169;-68
2021/10/02 09:35:02;;;;;;;7.17;5.07;;;;;;;16.73;48.45;101948.53;1675317;83;21223;-68
2021/10/02 09:37:35;;;;;;;;;;;;;;;16.79;47.83;101943.47;1701932;82;21031;-68
2021/10/02 09:40:10;;;;;;;7.25;4.75;;;;;;;16.80;45.92;101935.09;1701468;82;20178;-69
2021/10/02 09:42:41;;;;;;;7.03;4.80;;;;;;;16.78;46.30;101939.13;1705517;82;21533;-68
2021/10/02 09:45:16;;;;;;;6.00;3.80;;;;;;;16.83;45.96;101930.52;1704198;82;21539;-68
2021/10/02 09:47:50;;;;;;;6.50;4.00;;;;;;;16.89;44.69;101928.66;1702235;82;21130;-68
2021/10/02 09:50:20;;;;;;;7.35;4.08;;;;;;;16.94;44.62;101931.34;1678081;82;28568;-68
2021/10/02 09:52:54;;;;;;;7.77;4.00;;;;;;;16.98;44.79;101929.77;1703270;82;21102;-69
2021/10/02 09:55:29;;;;;;;7.13;4.30;;;;;;;17.04;44.50;101931.91;1701153;82;21151;-69
2021/10/02 09:58:02;;;;;;;7.47;3.83;;;;;;;17.12;44.24;101924.66;1702336;82;21842;-69
2021/10/02 10:00:36;;;;;;;6.10;3.90;;;;;;;17.17;43.40;101925.19;1702973;83;21109;-69
2021/10/02 10:03:06;;;;;;;6.33;3.87;;;;;;;17.19;43.35;101918.45;1700777;82;21111;-69
2021/10/02 10:05:37;;;;;;;6.30;4.15;;;;;;;17.22;42.74;101919.81;1702485;82;21034;-69
2021/10/02 10:08:07;;;;;;;7.00;4.00;;;;;;;17.24;42.89;101918.98;1703560;82;21526;-68
2021/10/02 10:10:39;;;;;;;6.60;4.17;;;;;;;17.27;42.32;101913.05;1702278;83;21123;-69
2021/10/02 10:13:19;;;;;;;6.30;3.93;;;;;;;17.27;42.25;101915.75;1698742;84;21142;-69
2021/10/02 10:15:57;;;;;;;6.60;3.80;;;;;;;17.27;42.15;101915.75;1695484;82;21094;-68
2021/10/02 10:18:30;;;;;;;5.30;3.67;;;;;;;17.27;41.90;101907.11;1701208;84;21027;-68
2021/10/02 10:21:34;;;;;;;5.60;3.73;;;;;;;17.28;41.20;101907.94;1702957;82;21683;-68
2021/10/02 10:24:00;;;;;;;6.23;4.30;;;;;;;17.24;40.64;101898.22;1698463;82;21149;-68
2021/10/02 10:26:27;;;;;;;6.03;4.03;;;;;;;17.21;41.62;101899.27;1629664;84;21052;-69
2021/10/02 10:28:55;;;;;;;6.83;4.43;;;;;;;17.24;41.46;101896.03;1701779;82;21517;-69
2021/10/02 10:31:26;;;;;;;7.77;4.33;;;;;;;17.25;41.87;101894.44;1631513;84;21027;-69
2021/10/02 10:33:57;;;;;;;6.13;4.20;;;;;;;17.28;41.91;101891.73;1701908;82;21545;-69
2021/10/02 10:36:27;;;;;;;7.27;4.63;;;;;;;17.33;42.81;101886.33;1696738;82;21139;-69
2021/10/02 10:38:54;;;;;;;8.53;5.17;;;;;;;17.41;42.62;101880.40;1702195;82;21038;-69
2021/10/02 10:41:22;;;;;;;9.47;5.60;;;;;;;17.46;42.25;101880.38;1702464;82;21078;-69
2021/10/02 10:43:51;;;;;;;11.50;5.63;;;;;;;17.46;42.81;101880.38;1702257;83;21079;-68
2021/10/02 10:46:22;;;;;;;8.33;5.10;;;;;;;17.49;43.26;101877.69;1700831;84;21655;-68
2021/10/02 10:48:49;;;;;;;8.73;4.80;;;;;;;17.53;42.33;101872.81;1702694;82;21207;-68
2021/10/02 10:51:19;;;;;;;7.07;5.00;;;;;;;17.53;42.15;101871.45;1703229;82;21494;-68
2021/10/02 10:53:50;;;;;;;6.47;4.80;;;;;;;17.55;41.69;101872.01;1702481;82;21063;-68
2021/10/02 10:56:37;;;;;;;9.03;4.73;;;;;;;17.58;41.76;101874.72;1703828;82;21066;-69
2021/10/02 10:59:05;;;;;;;7.80;5.00;;;;;;;17.58;41.75;101872.81;1701909;83;21560;-68
2021/10/02 11:01:38;;;;;;;6.93;4.83;;;;;;;17.59;41.75;101875.78;1703888;82;21252;-69
2021/10/02 11:04:06;;;;;;;7.43;4.80;;;;;;;17.62;41.82;101874.98;1701749;82;21090;-68
2021/10/02 11:06:55;;;;;;;6.17;4.93;;;;;;;17.63;42.18;101869.29;1701739;82;21157;-69
2021/10/02 11:09:38;;;;;;;6.37;4.47;;;;;;;17.67;41.64;101871.73;1727218;81;21141;-69
2021/10/02 11:12:10;;;;;;;7.33;4.42;;;;;;;17.71;40.79;101864.70;1711483;83;21536;-69
2021/10/02 11:14:59;;;;;;;7.73;4.47;;;;;;;17.69;40.27;101853.34;1736018;82;21089;-69
2021/10/02 11:17:39;;;;;;;6.67;4.60;;;;;;;17.70;40.88;101864.95;1731976;81;21695;-68
2021/10/02 11:20:38;;;;;;;7.35;4.67;;;;;;;17.68;40.91;101870.64;1735390;81;21041;-69
2021/10/02 11:23:39;;;;;;;6.20;4.40;;;;;;;17.68;41.30;101861.73;1741904;81;21057;-70
2021/10/02 11:26:25;;;;;;;5.67;4.33;;;;;;;17.69;41.04;101863.34;1738989;81;21050;-68
2021/10/02 11:29:04;;;;;;;7.70;4.63;;;;;;;17.67;40.92;101853.34;1733895;81;21540;-69
2021/10/02 11:31:34;;;;;;;5.43;4.00;;;;;;;17.69;40.92;101856.05;1734463;82;21075;-69
2021/10/02 11:34:01;;;;;;;6.40;4.20;;;;;;;17.68;41.04;101859.84;1735729;81;21532;-70
2021/10/02 11:36:40;;;;;;;5.43;3.40;;;;;;;17.67;40.75;101851.98;1736985;82;21053;-70
2021/10/02 11:39:19;;;;;;;6.00;4.43;;;;;;;17.69;39.55;101845.78;1735604;81;21009;-69
2021/10/02 11:41:57;;;;;;;6.97;4.27;;;;;;;17.63;39.92;101846.32;1735318;82;21845;-68
2021/10/02 11:44:39;;;;;;;6.63;4.63;;;;;;;17.63;40.73;101845.52;1734417;81;21377;-69
2021/10/02 11:47:37;;;;;;;;;;;;;;;17.67;40.93;101846.58;1739607;81;21114;-68
2021/10/02 11:50:24;;;;;;;6.23;4.07;;;;;;;17.72;39.79;101839.83;1733968;81;20201;-69
2021/10/02 11:52:57;;;;;;;7.40;4.00;;;;;;;17.69;39.45;101831.72;1693124;83;21101;-68
2021/10/02 11:55:44;;;;;;;7.33;3.53;;;;;;;17.67;40.17;101833.08;1724855;81;21128;-69
2021/10/02 11:58:13;;;;;;;5.93;3.23;;;;;;;17.69;40.17;101832.27;1709423;82;21553;-69
2021/10/02 12:00:53;;;;;;;6.80;3.80;;;;;;;17.68;39.81;101835.52;1708241;82;21097;-69
2021/10/02 12:03:25;;;;;;;5.67;3.60;;;;;;;17.67;39.58;101827.67;1705767;82;21069;-69
2021/10/02 12:05:54;;;;;;;6.23;3.73;;;;;;;17.64;39.50;101833.10;1705252;82;21204;-69
2021/10/02 12:08:24;;;;;;;7.40;3.80;;;;;;;17.66;39.79;101834.16;1708051;82;21129;-69
2021/10/02 12:11:10;;;;;;;6.83;3.75;;;;;;;17.67;39.69;101826.31;1705648;82;21200;-69
2021/10/02 12:13:52;;;;;;;6.60;3.80;;;;;;;17.63;39.40;101821.20;1707227;82;21124;-69
2021/10/02 12:16:29;;;;;;;7.63;4.00;;;;;;;17.62;39.62;101819.05;1726696;81;21128;-70
2021/10/02 12:19:07;;;;;;;7.20;3.70;;;;;;;17.64;39.04;101812.84;1706271;82;21030;-69
2021/10/02 12:21:45;;;;;;;6.33;3.63;;;;;;;17.66;39.12;101824.16;1701773;82;21077;-69
2021/10/02 12:24:16;;;;;;;5.30;3.33;;;;;;;17.66;39.29;101820.11;1730347;82;21037;-69
2021/10/02 12:27:15;;;;;;;7.67;4.00;;;;;;;17.65;39.22;101817.70;1731932;81;21156;-69
2021/10/02 12:29:46;;;;;;;6.13;4.47;;;;;;;17.62;39.10;101814.99;1734224;81;21073;-69
2021/10/02 12:32:24;;;;;;;7.30;4.00;;;;;;;17.60;39.39;101810.39;1734822;81;21213;-68
2021/10/02 12:34:54;;;;;;;5.80;3.93;;;;;;;17.59;39.37;101816.89;1691922;83;21237;-68